createdAt,value
2019-01-20T00:00:05.030Z,55.63
2019-01-20T00:01:11.850Z,55.65
2019-01-20T00:02:16.012Z,55.68
2019-01-20T00:03:19.928Z,55.68
2019-01-20T00:04:24.177Z,55.67
2019-01-20T00:05:28.365Z,55.67
2019-01-20T00:06:32.358Z,55.66
2019-01-20T00:07:36.585Z,55.68
2019-01-20T00:08:40.585Z,55.68
2019-01-20T00:09:44.847Z,55.68
2019-01-20T00:10:49.097Z,55.77
2019-01-20T00:11:53.340Z,55.79
2019-01-20T00:12:57.339Z,55.73
2019-01-20T00:14:01.190Z,55.67
2019-01-20T00:15:05.959Z,55.62
2019-01-20T00:16:09.967Z,55.57
2019-01-20T00:17:14.172Z,55.58
2019-01-20T00:18:18.020Z,55.62
2019-01-20T00:19:22.112Z,55.61
2019-01-20T00:20:26.480Z,55.58
2019-01-20T00:21:30.428Z,55.60
2019-01-20T00:22:34.456Z,55.60
2019-01-20T00:23:38.456Z,55.63
2019-01-20T00:24:42.349Z,55.62
2019-01-20T00:25:46.293Z,55.58
2019-01-20T00:26:50.301Z,55.58
2019-01-20T00:27:54.950Z,55.60
2019-01-20T00:28:58.958Z,55.59
2019-01-20T00:30:03.566Z,55.68
2019-01-20T00:31:07.587Z,55.75
2019-01-20T00:32:11.451Z,55.81
2019-01-20T00:33:15.660Z,55.72
2019-01-20T00:34:20.081Z,55.71
2019-01-20T00:35:23.945Z,55.70
2019-01-20T00:36:27.960Z,55.66
2019-01-20T00:37:31.897Z,55.53
2019-01-20T00:38:35.759Z,55.48
2019-01-20T00:39:39.694Z,55.55
2019-01-20T00:40:44.189Z,55.64
2019-01-20T00:41:48.393Z,55.67
2019-01-20T00:42:52.397Z,55.70
2019-01-20T00:43:56.665Z,55.69
2019-01-20T00:45:02.904Z,55.68
2019-01-20T00:46:07.254Z,55.72
2019-01-20T00:47:11.478Z,55.77
2019-01-20T00:48:15.467Z,55.80
2019-01-20T00:49:19.838Z,55.77
2019-01-20T00:50:24.054Z,55.76
2019-01-20T00:51:28.054Z,55.79
2019-01-20T00:52:32.394Z,55.80
2019-01-20T00:53:36.393Z,55.81
2019-01-20T00:54:40.396Z,55.80
2019-01-20T00:55:44.505Z,55.82
2019-01-20T00:56:48.519Z,55.87
2019-01-20T00:57:52.837Z,55.94
2019-01-20T00:58:56.840Z,55.95
2019-01-20T01:00:00.845Z,55.97
2019-01-20T01:01:05.528Z,55.97
2019-01-20T01:02:09.555Z,55.94
2019-01-20T01:03:13.561Z,55.94
2019-01-20T01:04:17.840Z,55.91
2019-01-20T01:05:22.093Z,55.88
2019-01-20T01:06:26.042Z,55.87
2019-01-20T01:07:30.131Z,55.92
2019-01-20T01:08:34.138Z,56.02
2019-01-20T01:09:38.065Z,56.10
2019-01-20T01:10:42.083Z,56.20
2019-01-20T01:11:46.095Z,56.24
2019-01-20T01:12:51.046Z,56.31
2019-01-20T01:13:55.345Z,56.37
2019-01-20T01:14:59.374Z,56.33
2019-01-20T01:16:03.381Z,56.36
2019-01-20T01:17:07.693Z,56.40
2019-01-20T01:18:11.734Z,56.34
2019-01-20T01:19:15.723Z,56.36
2019-01-20T01:20:20.324Z,56.39
2019-01-20T01:21:24.618Z,56.39
2019-01-20T01:22:28.897Z,56.43
2019-01-20T01:23:32.766Z,56.42
2019-01-20T01:24:36.766Z,56.42
2019-01-20T01:25:41.034Z,56.47
2019-01-20T01:26:45.344Z,56.52
2019-01-20T01:27:49.354Z,56.54
2019-01-20T01:28:53.958Z,56.56
2019-01-20T01:29:57.981Z,56.58
2019-01-20T01:31:02.052Z,56.62
2019-01-20T01:32:06.087Z,56.67
2019-01-20T01:33:10.098Z,56.66
2019-01-20T01:34:13.960Z,56.70
2019-01-20T01:35:18.214Z,56.78
2019-01-20T01:36:22.141Z,56.84
2019-01-20T01:37:26.069Z,56.88
2019-01-20T01:38:30.333Z,56.99
2019-01-20T01:39:34.646Z,57.04
2019-01-20T01:40:38.809Z,57.11
2019-01-20T01:41:42.733Z,57.23
2019-01-20T01:42:46.728Z,57.29
2019-01-20T01:43:50.740Z,57.46
2019-01-20T01:44:54.998Z,57.64
2019-01-20T01:45:58.920Z,57.69
2019-01-20T01:47:02.771Z,57.69
2019-01-20T01:48:06.758Z,57.63
2019-01-20T01:49:10.770Z,57.51
2019-01-20T01:50:15.813Z,57.37
2019-01-20T01:51:19.733Z,57.29
2019-01-20T01:52:23.915Z,57.19
2019-01-20T01:53:27.860Z,57.10
2019-01-20T01:54:31.785Z,57.06
2019-01-20T01:55:35.713Z,57.03
2019-01-20T01:56:39.637Z,57.02
2019-01-20T01:57:43.637Z,56.99
2019-01-20T01:58:47.571Z,56.93
2019-01-20T01:59:51.494Z,56.91
2019-01-20T02:00:55.491Z,56.87
2019-01-20T02:01:59.409Z,56.87
2019-01-20T02:03:03.423Z,56.92
2019-01-20T02:04:07.679Z,56.94
2019-01-20T02:05:11.775Z,56.95
2019-01-20T02:06:15.936Z,56.99
2019-01-20T02:07:19.936Z,56.96
2019-01-20T02:08:23.932Z,56.92
2019-01-20T02:09:28.197Z,56.94
2019-01-20T02:10:32.231Z,56.94
2019-01-20T02:11:36.184Z,56.90
2019-01-20T02:12:40.224Z,56.80
2019-01-20T02:13:44.408Z,56.70
2019-01-20T02:14:48.408Z,56.62
2019-01-20T02:15:52.593Z,56.60
2019-01-20T02:16:56.835Z,56.57
2019-01-20T02:18:00.842Z,56.55
2019-01-20T02:19:04.850Z,56.54
2019-01-20T02:20:10.623Z,56.52
2019-01-20T02:21:14.734Z,56.51
2019-01-20T02:22:18.734Z,56.51
2019-01-20T02:23:23.038Z,56.51
2019-01-20T02:24:27.343Z,56.53
2019-01-20T02:25:31.634Z,56.55
2019-01-20T02:26:35.705Z,56.51
2019-01-20T02:27:39.709Z,56.50
2019-01-20T02:28:43.640Z,56.49
2019-01-20T02:29:47.681Z,56.48
2019-01-20T02:30:51.707Z,56.46
2019-01-20T02:31:55.706Z,56.50
2019-01-20T02:33:00.358Z,56.48
2019-01-20T02:34:04.667Z,56.44
2019-01-20T02:35:09.155Z,56.43
2019-01-20T02:36:13.149Z,56.45
2019-01-20T02:37:17.085Z,56.43
2019-01-20T02:38:21.090Z,56.41
2019-01-20T02:39:25.027Z,56.35
2019-01-20T02:40:29.082Z,56.34
2019-01-20T02:41:33.093Z,56.28
2019-01-20T02:42:37.109Z,56.23
2019-01-20T02:43:41.108Z,56.19
2019-01-20T02:44:45.496Z,56.17
2019-01-20T02:45:49.512Z,56.18
2019-01-20T02:46:53.806Z,56.16
2019-01-20T02:47:57.738Z,56.13
2019-01-20T02:49:02.026Z,56.13
2019-01-20T02:50:07.462Z,56.12
2019-01-20T02:51:11.482Z,56.08
2019-01-20T02:52:15.755Z,56.05
2019-01-20T02:53:19.750Z,56.08
2019-01-20T02:54:24.103Z,56.07
2019-01-20T02:55:28.488Z,56.04
2019-01-20T02:56:32.816Z,56.02
2019-01-20T02:57:36.828Z,56.06
2019-01-20T02:58:40.754Z,56.08
2019-01-20T02:59:45.157Z,56.11
2019-01-20T03:00:49.146Z,56.14
2019-01-20T03:01:53.394Z,56.13
2019-01-20T03:02:57.427Z,56.14
2019-01-20T03:04:01.428Z,56.08
2019-01-20T03:05:07.327Z,56.00
2019-01-20T03:06:11.758Z,55.93
2019-01-20T03:07:15.765Z,55.95
2019-01-20T03:08:19.702Z,56.00
2019-01-20T03:09:23.636Z,56.04
2019-01-20T03:10:27.565Z,56.09
2019-01-20T03:11:31.495Z,56.10
2019-01-20T03:12:35.586Z,56.11
2019-01-20T03:13:39.589Z,56.16
2019-01-20T03:14:43.548Z,56.13
2019-01-20T03:15:47.589Z,56.15
2019-01-20T03:16:51.944Z,56.17
2019-01-20T03:17:56.494Z,56.17
2019-01-20T03:19:00.731Z,56.15
2019-01-20T03:20:06.807Z,56.16
2019-01-20T03:21:10.751Z,56.17
2019-01-20T03:22:15.063Z,56.18
2019-01-20T03:23:20.393Z,56.22
2019-01-20T03:24:24.592Z,56.22
2019-01-20T03:25:28.526Z,56.23
2019-01-20T03:26:32.474Z,56.21
2019-01-20T03:27:36.524Z,56.18
2019-01-20T03:28:40.533Z,56.19
2019-01-20T03:29:44.394Z,56.21
2019-01-20T03:30:48.331Z,56.21
2019-01-20T03:31:52.347Z,56.19
2019-01-20T03:32:56.493Z,56.16
2019-01-20T03:34:00.562Z,56.15
2019-01-20T03:35:05.563Z,56.12
2019-01-20T03:36:09.543Z,56.17
2019-01-20T03:37:13.559Z,56.23
2019-01-20T03:38:17.494Z,56.22
2019-01-20T03:39:21.724Z,56.24
2019-01-20T03:40:25.742Z,56.29
2019-01-20T03:41:29.756Z,56.34
2019-01-20T03:42:34.528Z,56.31
2019-01-20T03:43:38.548Z,56.32
2019-01-20T03:44:42.494Z,56.32
2019-01-20T03:45:46.502Z,56.30
2019-01-20T03:46:50.538Z,56.26
2019-01-20T03:47:54.554Z,56.23
2019-01-20T03:48:58.815Z,56.20
2019-01-20T03:50:03.105Z,56.19
2019-01-20T03:51:07.374Z,56.15
2019-01-20T03:52:11.734Z,56.09
2019-01-20T03:53:15.990Z,56.05
2019-01-20T03:54:19.995Z,56.05
2019-01-20T03:55:24.464Z,56.02
2019-01-20T03:56:28.385Z,56.00
2019-01-20T03:57:32.321Z,56.01
2019-01-20T03:58:36.559Z,56.04
2019-01-20T03:59:40.552Z,56.09
2019-01-20T04:00:44.796Z,56.08
2019-01-20T04:01:48.801Z,56.12
2019-01-20T04:02:59.762Z,56.12
2019-01-20T04:04:03.764Z,56.08
2019-01-20T04:05:07.787Z,56.06
2019-01-20T04:06:11.807Z,56.04
2019-01-20T04:07:15.804Z,56.04
2019-01-20T04:08:19.817Z,56.08
2019-01-20T04:09:23.990Z,56.14
2019-01-20T04:10:28.257Z,56.16
2019-01-20T04:11:32.788Z,56.18
2019-01-20T04:12:36.710Z,56.19
2019-01-20T04:13:41.225Z,56.15
2019-01-20T04:14:45.149Z,56.09
2019-01-20T04:15:49.147Z,56.02
2019-01-20T04:16:53.142Z,56.02
2019-01-20T04:17:57.327Z,56.05
2019-01-20T04:19:01.385Z,56.07
2019-01-20T04:20:06.688Z,56.09
2019-01-20T04:21:10.605Z,56.08
2019-01-20T04:22:14.453Z,56.12
2019-01-20T04:23:20.121Z,56.17
2019-01-20T04:24:24.011Z,56.16
2019-01-20T04:25:27.938Z,56.17
2019-01-20T04:26:31.896Z,56.20
2019-01-20T04:27:35.884Z,56.22
2019-01-20T04:28:40.150Z,56.22
2019-01-20T04:29:44.077Z,56.19
2019-01-20T04:30:48.078Z,56.17
2019-01-20T04:31:52.000Z,56.14
2019-01-20T04:32:56.272Z,56.13
2019-01-20T04:34:00.212Z,56.14
2019-01-20T04:35:04.718Z,56.15
2019-01-20T04:36:08.854Z,56.13
2019-01-20T04:37:13.222Z,56.07
2019-01-20T04:38:17.156Z,56.05
2019-01-20T04:39:21.403Z,56.02
2019-01-20T04:40:25.978Z,56.00
2019-01-20T04:41:30.270Z,56.00
2019-01-20T04:42:34.573Z,56.00
2019-01-20T04:43:38.586Z,56.02
2019-01-20T04:44:42.510Z,56.00
2019-01-20T04:45:46.513Z,56.01
2019-01-20T04:46:50.515Z,56.04
2019-01-20T04:47:54.742Z,56.07
2019-01-20T04:48:58.946Z,56.04
2019-01-20T04:50:03.120Z,56.03
2019-01-20T04:51:07.408Z,56.04
2019-01-20T04:52:11.489Z,56.03
2019-01-20T04:53:15.815Z,56.00
2019-01-20T04:54:19.831Z,55.99
2019-01-20T04:55:23.831Z,56.00
2019-01-20T04:56:27.762Z,56.01
2019-01-20T04:57:31.947Z,56.02
2019-01-20T04:58:35.940Z,56.00
2019-01-20T04:59:39.813Z,56.02
2019-01-20T05:00:43.752Z,56.11
2019-01-20T05:01:47.682Z,56.17
2019-01-20T05:02:51.681Z,56.18
2019-01-20T05:03:55.817Z,56.17
2019-01-20T05:04:59.765Z,56.17
2019-01-20T05:06:04.620Z,56.16
2019-01-20T05:07:08.629Z,56.21
2019-01-20T05:08:12.846Z,56.25
2019-01-20T05:09:16.717Z,56.25
2019-01-20T05:10:20.717Z,56.25
2019-01-20T05:11:24.574Z,56.28
2019-01-20T05:12:28.851Z,56.28
2019-01-20T05:13:32.842Z,56.25
2019-01-20T05:14:37.061Z,56.22
2019-01-20T05:15:41.395Z,56.18
2019-01-20T05:16:45.728Z,56.14
2019-01-20T05:17:50.007Z,56.12
2019-01-20T05:18:55.005Z,56.09
2019-01-20T05:19:59.140Z,56.04
2019-01-20T05:21:02.964Z,56.04
2019-01-20T05:22:07.222Z,56.00
2019-01-20T05:23:11.587Z,56.00
2019-01-20T05:24:15.512Z,55.99
2019-01-20T05:25:19.528Z,55.98
2019-01-20T05:26:23.538Z,56.00
2019-01-20T05:27:27.542Z,56.01
2019-01-20T05:28:31.468Z,56.01
2019-01-20T05:29:35.400Z,55.96
2019-01-20T05:30:39.532Z,55.98
2019-01-20T05:31:43.470Z,56.00
2019-01-20T05:32:47.470Z,55.94
2019-01-20T05:33:51.578Z,55.95
2019-01-20T05:34:56.973Z,55.99
2019-01-20T05:36:01.273Z,55.98
2019-01-20T05:37:05.297Z,56.00
2019-01-20T05:38:09.477Z,55.96
2019-01-20T05:39:13.506Z,55.94
2019-01-20T05:40:17.863Z,55.93
2019-01-20T05:41:22.197Z,55.90
2019-01-20T05:42:26.117Z,55.90
2019-01-20T05:43:30.713Z,55.91
2019-01-20T05:44:34.569Z,55.90
2019-01-20T05:45:38.812Z,55.87
2019-01-20T05:46:42.823Z,55.84
2019-01-20T05:47:46.887Z,55.84
2019-01-20T05:48:50.909Z,55.81
2019-01-20T05:49:54.830Z,55.79
2019-01-20T05:50:58.953Z,55.79
2019-01-20T05:52:02.841Z,55.79
2019-01-20T05:53:06.846Z,55.79
2019-01-20T05:54:10.776Z,55.78
2019-01-20T05:55:15.385Z,55.79
2019-01-20T05:56:19.328Z,55.78
2019-01-20T05:57:23.184Z,55.78
2019-01-20T05:58:27.492Z,55.72
2019-01-20T05:59:31.360Z,55.65
2019-01-20T06:00:36.176Z,55.61
2019-01-20T06:01:40.744Z,55.63
2019-01-20T06:02:45.018Z,55.62
2019-01-20T06:03:48.887Z,55.62
2019-01-20T06:04:53.496Z,55.63
2019-01-20T06:05:57.888Z,55.62
2019-01-20T06:07:01.824Z,55.62
2019-01-20T06:08:06.077Z,55.64
2019-01-20T06:09:09.930Z,55.68
2019-01-20T06:10:14.591Z,55.66
2019-01-20T06:11:18.934Z,55.65
2019-01-20T06:12:22.940Z,55.60
2019-01-20T06:13:26.994Z,55.59
2019-01-20T06:14:31.141Z,55.58
2019-01-20T06:15:35.550Z,55.58
2019-01-20T06:16:39.858Z,55.58
2019-01-20T06:17:44.164Z,55.58
2019-01-20T06:18:48.358Z,55.58
2019-01-20T06:19:52.283Z,55.56
2019-01-20T06:20:56.287Z,55.46
2019-01-20T06:22:00.320Z,55.45
2019-01-20T06:23:04.588Z,55.54
2019-01-20T06:24:08.956Z,55.63
2019-01-20T06:25:13.423Z,55.64
2019-01-20T06:26:17.347Z,55.68
2019-01-20T06:27:21.633Z,55.65
2019-01-20T06:28:25.638Z,55.58
2019-01-20T06:29:29.861Z,55.60
2019-01-20T06:30:34.468Z,55.64
2019-01-20T06:31:38.421Z,55.66
2019-01-20T06:32:42.449Z,55.68
2019-01-20T06:33:46.626Z,55.72
2019-01-20T06:34:50.829Z,55.75
2019-01-20T06:35:55.076Z,55.80
2019-01-20T06:36:59.176Z,55.87
2019-01-20T06:38:03.357Z,55.88
2019-01-20T06:39:08.591Z,55.95
2019-01-20T06:40:13.304Z,56.06
2019-01-20T06:41:17.303Z,56.15
2019-01-20T06:42:21.741Z,56.22
2019-01-20T06:43:25.860Z,56.24
2019-01-20T06:44:29.787Z,56.31
2019-01-20T06:45:33.742Z,56.35
2019-01-20T06:46:37.741Z,56.44
2019-01-20T06:47:41.849Z,56.62
2019-01-20T06:48:46.233Z,56.79
2019-01-20T06:49:50.448Z,56.82
2019-01-20T06:50:55.053Z,56.89
2019-01-20T06:51:59.872Z,56.96
2019-01-20T06:53:03.814Z,56.89
2019-01-20T06:54:07.736Z,56.83
2019-01-20T06:55:12.711Z,56.78
2019-01-20T06:56:16.804Z,56.74
2019-01-20T06:57:20.729Z,56.67
2019-01-20T06:58:25.009Z,56.62
2019-01-20T06:59:29.728Z,56.59
2019-01-20T07:00:34.773Z,56.53
2019-01-20T07:01:38.957Z,56.40
2019-01-20T07:02:43.290Z,56.37
2019-01-20T07:03:47.494Z,56.39
2019-01-20T07:04:52.185Z,56.37
2019-01-20T07:05:56.493Z,56.38
2019-01-20T07:07:00.501Z,56.42
2019-01-20T07:08:04.513Z,56.46
2019-01-20T07:09:09.263Z,56.55
2019-01-20T07:10:14.461Z,56.61
2019-01-20T07:11:18.449Z,56.58
2019-01-20T07:12:22.472Z,56.53
2019-01-20T07:13:26.337Z,56.52
2019-01-20T07:14:30.268Z,56.51
2019-01-20T07:15:34.269Z,56.52
2019-01-20T07:16:38.273Z,56.48
2019-01-20T07:17:42.209Z,56.45
2019-01-20T07:18:46.158Z,56.45
2019-01-20T07:19:50.453Z,56.42
2019-01-20T07:20:55.065Z,56.39
2019-01-20T07:21:59.797Z,56.39
2019-01-20T07:23:04.503Z,56.38
2019-01-20T07:24:08.446Z,56.33
2019-01-20T07:25:12.914Z,56.29
2019-01-20T07:26:17.220Z,56.31
2019-01-20T07:27:21.234Z,56.30
2019-01-20T07:28:25.158Z,56.27
2019-01-20T07:29:29.429Z,56.24
2019-01-20T07:30:33.511Z,56.23
2019-01-20T07:31:37.473Z,56.21
2019-01-20T07:32:41.800Z,56.17
2019-01-20T07:33:46.505Z,56.16
2019-01-20T07:34:50.516Z,56.23
2019-01-20T07:35:54.868Z,56.25
2019-01-20T07:36:59.175Z,56.25
2019-01-20T07:38:03.486Z,56.23
2019-01-20T07:39:08.612Z,56.32
2019-01-20T07:40:14.167Z,56.42
2019-01-20T07:41:18.248Z,56.42
2019-01-20T07:42:22.766Z,56.46
2019-01-20T07:43:27.022Z,56.51
2019-01-20T07:44:30.954Z,56.54
2019-01-20T07:45:34.956Z,56.58
2019-01-20T07:46:39.586Z,56.76
2019-01-20T07:47:43.897Z,57.17
2019-01-20T07:48:47.821Z,58.42
2019-01-20T07:49:52.249Z,59.54
2019-01-20T07:50:56.301Z,60.10
2019-01-20T07:52:00.226Z,60.40
2019-01-20T07:53:04.368Z,60.55
2019-01-20T07:54:08.382Z,60.68
2019-01-20T07:55:12.389Z,60.84
2019-01-20T07:56:16.621Z,60.85
2019-01-20T07:57:20.654Z,61.27
2019-01-20T07:58:24.508Z,61.34
2019-01-20T07:59:28.441Z,61.75
2019-01-20T08:00:32.729Z,62.06
2019-01-20T08:01:37.034Z,61.43
2019-01-20T08:02:41.129Z,60.80
2019-01-20T08:03:45.129Z,60.72
2019-01-20T08:04:49.650Z,60.91
2019-01-20T08:05:53.575Z,60.65
2019-01-20T08:06:58.165Z,60.63
2019-01-20T08:08:02.517Z,60.79
2019-01-20T08:09:08.284Z,60.26
2019-01-20T08:10:15.538Z,59.89
2019-01-20T08:11:19.776Z,59.65
2019-01-20T08:12:23.780Z,59.36
2019-01-20T08:13:28.008Z,59.26
2019-01-20T08:14:32.014Z,59.41
2019-01-20T08:15:36.101Z,59.01
2019-01-20T08:16:40.520Z,59.09
2019-01-20T08:17:44.527Z,59.14
2019-01-20T08:18:48.977Z,59.14
2019-01-20T08:19:53.157Z,58.96
2019-01-20T08:20:57.353Z,58.53
2019-01-20T08:22:01.351Z,58.35
2019-01-20T08:23:05.718Z,58.35
2019-01-20T08:24:09.718Z,58.51
2019-01-20T08:25:15.910Z,58.32
2019-01-20T08:26:19.833Z,58.25
2019-01-20T08:27:23.824Z,57.93
2019-01-20T08:28:27.994Z,57.71
2019-01-20T08:29:31.912Z,57.41
2019-01-20T08:30:35.922Z,57.19
2019-01-20T08:31:39.849Z,56.95
2019-01-20T08:32:43.845Z,56.74
2019-01-20T08:33:48.089Z,57.24
2019-01-20T08:34:52.271Z,57.75
2019-01-20T08:35:56.452Z,57.89
2019-01-20T08:37:00.808Z,57.59
2019-01-20T08:38:05.005Z,57.33
2019-01-20T08:39:09.290Z,57.33
2019-01-20T08:40:15.665Z,57.72
2019-01-20T08:41:19.949Z,57.71
2019-01-20T08:42:24.193Z,57.37
2019-01-20T08:43:31.992Z,57.15
2019-01-20T08:44:38.888Z,56.98
2019-01-20T08:46:06.505Z,56.76
2019-01-20T08:47:42.226Z,56.52
2019-01-20T08:48:46.225Z,56.38
2019-01-20T08:49:50.144Z,56.26
2019-01-20T08:50:54.047Z,56.20
2019-01-20T08:51:58.040Z,56.16
2019-01-20T08:53:02.038Z,56.10
2019-01-20T08:54:06.281Z,56.05
2019-01-20T08:55:10.769Z,55.95
2019-01-20T08:56:14.709Z,55.90
2019-01-20T08:57:18.701Z,55.89
2019-01-20T08:58:22.703Z,55.93
2019-01-20T08:59:26.869Z,55.93
2019-01-20T09:00:31.110Z,55.88
2019-01-20T09:01:35.045Z,55.80
2019-01-20T09:02:38.978Z,55.75
2019-01-20T09:03:42.901Z,55.72
2019-01-20T09:04:46.903Z,55.69
2019-01-20T09:05:51.425Z,55.58
2019-01-20T09:06:55.628Z,55.49
2019-01-20T09:07:59.549Z,55.45
2019-01-20T09:09:05.250Z,55.39
2019-01-20T09:10:20.155Z,55.28
2019-01-20T09:11:24.005Z,54.97
2019-01-20T09:12:28.435Z,55.02
2019-01-20T09:13:39.352Z,55.08
2019-01-20T09:14:38.477Z,55.20
2019-01-20T09:15:42.478Z,55.31
2019-01-20T09:16:46.488Z,55.36
2019-01-20T09:17:50.409Z,55.31
2019-01-20T09:18:54.917Z,55.27
2019-01-20T09:19:59.203Z,55.33
2019-01-20T09:21:03.618Z,55.38
2019-01-20T09:22:07.631Z,55.38
2019-01-20T09:23:11.569Z,55.43
2019-01-20T09:24:15.562Z,55.47
2019-01-20T09:25:19.653Z,55.53
2019-01-20T09:26:23.646Z,55.55
2019-01-20T09:27:27.647Z,55.52
2019-01-20T09:28:32.136Z,55.43
2019-01-20T09:29:36.744Z,55.33
2019-01-20T09:30:40.745Z,55.22
2019-01-20T09:31:44.661Z,55.17
2019-01-20T09:32:48.689Z,55.16
2019-01-20T09:33:52.739Z,55.12
2019-01-20T09:34:56.764Z,55.09
2019-01-20T09:36:00.838Z,55.04
2019-01-20T09:37:05.165Z,55.04
2019-01-20T09:38:09.356Z,55.09
2019-01-20T09:39:14.847Z,55.13
2019-01-20T09:40:19.212Z,55.14
2019-01-20T09:41:23.416Z,55.13
2019-01-20T09:42:27.350Z,55.09
2019-01-20T09:43:31.195Z,55.01
2019-01-20T09:44:35.632Z,54.89
2019-01-20T09:45:39.889Z,54.69
2019-01-20T09:46:44.144Z,54.45
2019-01-20T09:47:48.077Z,54.46
2019-01-20T09:48:52.321Z,54.71
2019-01-20T09:49:56.331Z,54.87
2019-01-20T09:51:00.489Z,54.92
2019-01-20T09:52:04.484Z,54.93
2019-01-20T09:53:08.488Z,54.89
2019-01-20T09:54:12.660Z,54.88
2019-01-20T09:55:16.914Z,54.84
2019-01-20T09:56:20.752Z,54.66
2019-01-20T09:57:24.676Z,54.64
2019-01-20T09:58:28.611Z,54.63
2019-01-20T09:59:32.534Z,54.59
2019-01-20T10:00:36.516Z,54.65
2019-01-20T10:01:40.680Z,54.65
2019-01-20T10:02:44.928Z,54.53
2019-01-20T10:03:49.377Z,54.58
2019-01-20T10:04:53.370Z,54.59
2019-01-20T10:05:57.611Z,54.62
2019-01-20T10:07:01.606Z,54.63
2019-01-20T10:08:06.032Z,54.68
2019-01-20T10:09:10.297Z,54.71
2019-01-20T10:10:15.222Z,54.75
2019-01-20T10:11:19.217Z,54.78
2019-01-20T10:12:23.459Z,54.77
2019-01-20T10:13:27.847Z,54.73
2019-01-20T10:14:31.770Z,54.42
2019-01-20T10:15:35.681Z,54.53
2019-01-20T10:16:39.599Z,54.56
2019-01-20T10:17:43.852Z,54.46
2019-01-20T10:18:48.028Z,54.45
2019-01-20T10:19:51.873Z,54.39
2019-01-20T10:20:55.791Z,54.48
2019-01-20T10:21:59.948Z,54.54
2019-01-20T10:23:03.959Z,54.56
2019-01-20T10:24:08.213Z,54.62
2019-01-20T10:25:15.140Z,54.66
2019-01-20T10:26:18.018Z,54.67
2019-01-20T10:27:22.010Z,54.62
2019-01-20T10:28:27.280Z,54.58
2019-01-20T10:29:31.276Z,54.47
2019-01-20T10:30:36.613Z,54.30
2019-01-20T10:31:41.009Z,54.23
2019-01-20T10:32:47.980Z,54.21
2019-01-20T10:33:51.032Z,54.26
2019-01-20T10:34:55.667Z,54.15
2019-01-20T10:36:06.991Z,54.09
2019-01-20T10:37:11.432Z,54.19
2019-01-20T10:38:15.739Z,54.22
2019-01-20T10:39:19.680Z,54.20
2019-01-20T10:40:23.946Z,54.15
2019-01-20T10:41:27.865Z,54.17
2019-01-20T10:42:32.183Z,54.06
2019-01-20T10:43:36.460Z,53.95
2019-01-20T10:44:40.383Z,53.85
2019-01-20T10:45:44.564Z,53.86
2019-01-20T10:46:48.873Z,53.88
2019-01-20T10:47:52.723Z,53.85
2019-01-20T10:48:56.729Z,53.41
2019-01-20T10:50:00.745Z,53.37
2019-01-20T10:51:05.084Z,53.37
2019-01-20T10:52:09.085Z,53.57
2019-01-20T10:53:13.476Z,53.64
2019-01-20T10:54:17.484Z,53.64
2019-01-20T10:55:21.724Z,53.68
2019-01-20T10:56:25.955Z,53.68
2019-01-20T10:57:30.032Z,53.39
2019-01-20T10:58:34.149Z,53.28
2019-01-20T10:59:38.188Z,53.39
2019-01-20T11:00:42.625Z,53.38
2019-01-20T11:01:46.819Z,53.37
2019-01-20T11:02:51.652Z,53.30
2019-01-20T11:03:55.865Z,53.08
2019-01-20T11:04:59.875Z,53.06
2019-01-20T11:06:04.177Z,52.99
2019-01-20T11:07:08.476Z,52.92
2019-01-20T11:08:12.884Z,52.89
2019-01-20T11:09:16.943Z,52.77
2019-01-20T11:10:20.980Z,52.67
2019-01-20T11:11:25.096Z,52.79
2019-01-20T11:12:29.612Z,52.76
2019-01-20T11:13:33.531Z,52.71
2019-01-20T11:14:37.588Z,52.68
2019-01-20T11:15:41.592Z,52.59
2019-01-20T11:16:45.917Z,52.44
2019-01-20T11:17:50.329Z,52.35
2019-01-20T11:18:55.017Z,52.04
2019-01-20T11:19:59.252Z,52.01
2019-01-20T11:21:03.236Z,52.09
2019-01-20T11:22:07.241Z,52.15
2019-01-20T11:23:11.944Z,52.14
2019-01-20T11:24:16.203Z,52.15
2019-01-20T11:25:23.246Z,51.67
2019-01-20T11:26:27.660Z,51.77
2019-01-20T11:27:31.607Z,51.73
2019-01-20T11:28:35.608Z,51.83
2019-01-20T11:29:39.824Z,51.85
2019-01-20T11:30:43.768Z,51.83
2019-01-20T11:31:47.976Z,51.70
2019-01-20T11:32:52.224Z,51.46
2019-01-20T11:33:56.196Z,51.59
2019-01-20T11:35:00.270Z,51.65
2019-01-20T11:36:04.314Z,51.56
2019-01-20T11:37:08.693Z,51.45
2019-01-20T11:38:14.354Z,51.31
2019-01-20T11:39:19.049Z,51.21
2019-01-20T11:40:22.987Z,51.23
2019-01-20T11:41:28.419Z,51.24
2019-01-20T11:42:32.519Z,51.20
2019-01-20T11:43:36.658Z,51.09
2019-01-20T11:44:40.494Z,51.08
2019-01-20T11:45:44.751Z,50.98
2019-01-20T11:46:48.749Z,50.68
2019-01-20T11:47:53.309Z,50.67
2019-01-20T11:48:57.578Z,50.67
2019-01-20T11:50:01.957Z,50.49
2019-01-20T11:51:06.007Z,50.51
2019-01-20T11:52:10.263Z,50.54
2019-01-20T11:53:14.565Z,50.53
2019-01-20T11:54:19.764Z,50.58
2019-01-20T11:55:24.100Z,50.54
2019-01-20T11:56:28.161Z,50.43
2019-01-20T11:57:32.392Z,50.24
2019-01-20T11:58:36.714Z,50.19
2019-01-20T11:59:40.615Z,50.17
2019-01-20T12:00:45.016Z,50.16
2019-01-20T12:01:49.064Z,50.03
2019-01-20T12:02:53.828Z,49.99
2019-01-20T12:03:58.149Z,49.97
2019-01-20T12:05:02.097Z,49.94
2019-01-20T12:06:06.252Z,49.86
2019-01-20T12:07:10.275Z,49.86
2019-01-20T12:08:14.317Z,49.89
2019-01-20T12:09:19.162Z,49.79
2019-01-20T12:10:23.241Z,49.78
2019-01-20T12:11:27.271Z,49.84
2019-01-20T12:12:31.603Z,49.79
2019-01-20T12:13:35.700Z,49.70
2019-01-20T12:14:39.809Z,49.61
2019-01-20T12:15:44.081Z,49.66
2019-01-20T12:16:47.946Z,49.62
2019-01-20T12:17:51.975Z,49.44
2019-01-20T12:18:56.015Z,49.37
2019-01-20T12:20:00.003Z,49.39
2019-01-20T12:21:04.248Z,49.41
2019-01-20T12:22:08.245Z,49.33
2019-01-20T12:23:12.313Z,49.27
2019-01-20T12:24:16.419Z,49.31
2019-01-20T12:25:20.375Z,49.14
2019-01-20T12:26:24.532Z,49.20
2019-01-20T12:27:28.542Z,49.31
2019-01-20T12:28:32.636Z,49.32
2019-01-20T12:29:36.552Z,49.22
2019-01-20T12:30:40.901Z,49.15
2019-01-20T12:31:44.908Z,49.13
2019-01-20T12:32:49.144Z,49.13
2019-01-20T12:33:53.147Z,49.19
2019-01-20T12:34:57.140Z,49.21
2019-01-20T12:36:01.062Z,49.05
2019-01-20T12:37:05.277Z,49.01
2019-01-20T12:38:09.268Z,49.06
2019-01-20T12:39:13.275Z,49.11
2019-01-20T12:40:23.277Z,49.17
2019-01-20T12:41:27.511Z,49.26
2019-01-20T12:42:31.688Z,49.17
2019-01-20T12:43:35.687Z,49.05
2019-01-20T12:44:39.915Z,48.92
2019-01-20T12:45:44.190Z,48.93
2019-01-20T12:46:48.122Z,48.97
2019-01-20T12:47:52.155Z,49.06
2019-01-20T12:48:56.573Z,49.05
2019-01-20T12:50:00.492Z,49.09
2019-01-20T12:51:04.745Z,49.03
2019-01-20T12:52:09.119Z,48.98
2019-01-20T12:53:13.116Z,48.99
2019-01-20T12:54:17.600Z,48.91
2019-01-20T12:55:21.590Z,48.86
2019-01-20T12:56:25.503Z,48.85
2019-01-20T12:57:29.512Z,48.82
2019-01-20T12:58:33.752Z,48.81
2019-01-20T12:59:38.107Z,48.81
2019-01-20T13:00:42.103Z,48.76
2019-01-20T13:01:46.275Z,48.65
2019-01-20T13:02:50.210Z,48.70
2019-01-20T13:03:54.385Z,48.70
2019-01-20T13:04:58.713Z,48.64
2019-01-20T13:06:02.815Z,48.61
2019-01-20T13:07:07.070Z,48.48
2019-01-20T13:08:11.145Z,48.33
2019-01-20T13:09:15.384Z,48.49
2019-01-20T13:10:19.792Z,48.52
2019-01-20T13:11:24.554Z,48.56
2019-01-20T13:12:28.796Z,48.42
2019-01-20T13:13:32.810Z,48.46
2019-01-20T13:14:39.274Z,48.43
2019-01-20T13:15:42.939Z,48.39
2019-01-20T13:16:46.860Z,48.45
2019-01-20T13:17:50.853Z,48.53
2019-01-20T13:18:55.104Z,48.57
2019-01-20T13:19:59.020Z,48.54
2019-01-20T13:21:03.039Z,48.36
2019-01-20T13:22:07.222Z,48.40
2019-01-20T13:23:11.249Z,48.23
2019-01-20T13:24:15.250Z,48.30
2019-01-20T13:25:24.344Z,48.31
2019-01-20T13:26:28.521Z,47.98
2019-01-20T13:27:32.442Z,48.30
2019-01-20T13:28:36.327Z,48.49
2019-01-20T13:29:40.244Z,48.62
2019-01-20T13:30:44.485Z,48.58
2019-01-20T13:31:48.329Z,48.63
2019-01-20T13:32:52.328Z,48.71
2019-01-20T13:33:56.532Z,48.78
2019-01-20T13:35:01.157Z,48.94
2019-01-20T13:36:11.811Z,48.59
2019-01-20T13:37:15.859Z,48.86
2019-01-20T13:38:21.874Z,48.98
2019-01-20T13:39:26.585Z,48.98
2019-01-20T13:40:51.873Z,48.67
2019-01-20T13:41:56.077Z,48.64
2019-01-20T13:43:00.001Z,48.81
2019-01-20T13:44:04.275Z,49.13
2019-01-20T13:45:11.229Z,49.26
2019-01-20T13:46:15.565Z,49.39
2019-01-20T13:47:19.868Z,49.52
2019-01-20T13:48:24.306Z,49.57